sensor_id;sensor_type;location;lat;lon;timestamp;P1;durP1;ratioP1;P2;durP2;ratioP2
572;SDS011;271;51.114;13.780;2023-06-24T00:02:03;25.87;;;11.20;;
572;SDS011;271;51.114;13.780;2023-06-24T00:04:52;24.13;;;10.60;;
572;SDS011;271;51.114;13.780;2023-06-24T00:07:41;23.80;;;10.53;;
572;SDS011;271;51.114;13.780;2023-06-24T00:10:30;24.43;;;11.10;;
572;SDS011;271;51.114;13.780;2023-06-24T00:13:18;27.07;;;13.10;;
572;SDS011;271;51.114;13.780;2023-06-24T00:16:06;28.13;;;12.83;;
572;SDS011;271;51.114;13.780;2023-06-24T00:18:55;29.03;;;13.60;;
572;SDS011;271;51.114;13.780;2023-06-24T00:21:46;27.03;;;13.50;;
572;SDS011;271;51.114;13.780;2023-06-24T00:24:35;26.77;;;13.63;;
572;SDS011;271;51.114;13.780;2023-06-24T00:27:23;28.00;;;14.50;;
572;SDS011;271;51.114;13.780;2023-06-24T00:30:11;28.97;;;13.57;;
572;SDS011;271;51.114;13.780;2023-06-24T00:32:59;28.30;;;12.80;;
572;SDS011;271;51.114;13.780;2023-06-24T00:35:48;30.00;;;13.90;;
572;SDS011;271;51.114;13.780;2023-06-24T00:38:36;27.73;;;14.17;;
572;SDS011;271;51.114;13.780;2023-06-24T00:41:25;30.73;;;14.10;;
572;SDS011;271;51.114;13.780;2023-06-24T00:44:13;29.93;;;14.43;;
572;SDS011;271;51.114;13.780;2023-06-24T00:47:01;28.30;;;13.90;;
572;SDS011;271;51.114;13.780;2023-06-24T00:49:49;32.87;;;15.33;;
572;SDS011;271;51.114;13.780;2023-06-24T00:52:37;29.43;;;14.80;;
572;SDS011;271;51.114;13.780;2023-06-24T00:55:28;28.43;;;14.33;;
572;SDS011;271;51.114;13.780;2023-06-24T00:58:17;30.00;;;14.60;;
572;SDS011;271;51.114;13.780;2023-06-24T01:01:06;33.50;;;16.67;;
572;SDS011;271;51.114;13.780;2023-06-24T01:03:54;32.73;;;15.80;;
572;SDS011;271;51.114;13.780;2023-06-24T01:06:42;33.20;;;18.00;;
572;SDS011;271;51.114;13.780;2023-06-24T01:09:30;30.83;;;15.90;;
572;SDS011;271;51.114;13.780;2023-06-24T01:12:18;30.27;;;17.73;;
572;SDS011;271;51.114;13.780;2023-06-24T01:15:07;31.00;;;17.27;;
572;SDS011;271;51.114;13.780;2023-06-24T01:17:58;32.40;;;17.67;;
572;SDS011;271;51.114;13.780;2023-06-24T01:20:51;29.87;;;16.47;;
572;SDS011;271;51.114;13.780;2023-06-24T01:33:54;37.60;;;20.37;;
572;SDS011;271;51.114;13.780;2023-06-24T01:36:50;36.60;;;20.10;;
572;SDS011;271;51.114;13.780;2023-06-24T01:42:56;41.90;;;22.47;;
572;SDS011;271;51.114;13.780;2023-06-24T01:45:47;34.63;;;19.57;;
572;SDS011;271;51.114;13.780;2023-06-24T01:48:38;38.30;;;20.30;;
572;SDS011;271;51.114;13.780;2023-06-24T01:51:31;32.50;;;19.10;;
572;SDS011;271;51.114;13.780;2023-06-24T01:54:21;37.77;;;21.10;;
572;SDS011;271;51.114;13.780;2023-06-24T01:57:11;34.43;;;18.47;;
572;SDS011;271;51.114;13.780;2023-06-24T01:59:59;38.33;;;21.30;;
572;SDS011;271;51.114;13.780;2023-06-24T02:02:51;35.37;;;20.73;;
572;SDS011;271;51.114;13.780;2023-06-24T02:05:41;37.27;;;21.47;;
572;SDS011;271;51.114;13.780;2023-06-24T02:08:33;38.43;;;21.47;;
572;SDS011;271;51.114;13.780;2023-06-24T02:11:22;35.03;;;19.67;;
572;SDS011;271;51.114;13.780;2023-06-24T02:14:12;33.43;;;18.90;;
572;SDS011;271;51.114;13.780;2023-06-24T02:17:03;37.27;;;20.57;;
572;SDS011;271;51.114;13.780;2023-06-24T02:19:53;38.43;;;22.30;;
572;SDS011;271;51.114;13.780;2023-06-24T02:22:41;35.70;;;21.47;;
572;SDS011;271;51.114;13.780;2023-06-24T02:25:33;38.93;;;21.87;;
572;SDS011;271;51.114;13.780;2023-06-24T02:28:24;35.77;;;21.47;;
572;SDS011;271;51.114;13.780;2023-06-24T02:31:12;44.33;;;24.40;;
572;SDS011;271;51.114;13.780;2023-06-24T02:34:01;36.20;;;22.50;;
572;SDS011;271;51.114;13.780;2023-06-24T02:36:49;36.70;;;23.77;;
572;SDS011;271;51.114;13.780;2023-06-24T02:39:37;42.50;;;23.07;;
572;SDS011;271;51.114;13.780;2023-06-24T02:42:31;44.50;;;25.67;;
572;SDS011;271;51.114;13.780;2023-06-24T02:45:18;38.87;;;23.63;;
572;SDS011;271;51.114;13.780;2023-06-24T02:48:07;43.47;;;26.00;;
572;SDS011;271;51.114;13.780;2023-06-24T02:50:57;39.37;;;23.07;;
572;SDS011;271;51.114;13.780;2023-06-24T02:53:45;41.23;;;23.70;;
572;SDS011;271;51.114;13.780;2023-06-24T02:56:34;40.30;;;23.30;;
572;SDS011;271;51.114;13.780;2023-06-24T02:59:28;38.00;;;22.70;;
572;SDS011;271;51.114;13.780;2023-06-24T03:02:16;47.07;;;24.37;;
572;SDS011;271;51.114;13.780;2023-06-24T03:05:04;41.67;;;24.07;;
572;SDS011;271;51.114;13.780;2023-06-24T03:07:54;38.53;;;22.20;;
572;SDS011;271;51.114;13.780;2023-06-24T03:10:42;41.33;;;23.70;;
572;SDS011;271;51.114;13.780;2023-06-24T03:13:30;41.63;;;22.10;;
572;SDS011;271;51.114;13.780;2023-06-24T03:16:19;40.20;;;23.53;;
572;SDS011;271;51.114;13.780;2023-06-24T03:19:07;40.87;;;23.30;;
572;SDS011;271;51.114;13.780;2023-06-24T03:21:55;35.70;;;21.20;;
572;SDS011;271;51.114;13.780;2023-06-24T03:24:42;35.77;;;20.73;;
572;SDS011;271;51.114;13.780;2023-06-24T03:27:30;39.90;;;22.60;;
572;SDS011;271;51.114;13.780;2023-06-24T03:30:19;38.43;;;21.60;;
572;SDS011;271;51.114;13.780;2023-06-24T03:33:08;35.43;;;20.83;;
572;SDS011;271;51.114;13.780;2023-06-24T03:35:56;33.73;;;20.50;;
572;SDS011;271;51.114;13.780;2023-06-24T03:38:44;36.23;;;21.90;;
572;SDS011;271;51.114;13.780;2023-06-24T03:41:32;34.90;;;21.40;;
572;SDS011;271;51.114;13.780;2023-06-24T03:44:20;36.57;;;21.17;;
572;SDS011;271;51.114;13.780;2023-06-24T03:47:08;39.03;;;20.70;;
572;SDS011;271;51.114;13.780;2023-06-24T03:49:57;38.73;;;21.17;;
572;SDS011;271;51.114;13.780;2023-06-24T03:52:44;32.50;;;18.63;;
572;SDS011;271;51.114;13.780;2023-06-24T03:55:32;34.43;;;19.70;;
572;SDS011;271;51.114;13.780;2023-06-24T03:58:20;37.60;;;21.23;;
572;SDS011;271;51.114;13.780;2023-06-24T04:01:07;32.63;;;18.63;;
572;SDS011;271;51.114;13.780;2023-06-24T04:03:55;36.23;;;19.37;;
572;SDS011;271;51.114;13.780;2023-06-24T04:06:44;36.20;;;17.30;;
572;SDS011;271;51.114;13.780;2023-06-24T04:09:32;33.90;;;18.80;;
572;SDS011;271;51.114;13.780;2023-06-24T04:12:21;32.63;;;18.67;;
572;SDS011;271;51.114;13.780;2023-06-24T04:15:09;31.60;;;17.80;;
572;SDS011;271;51.114;13.780;2023-06-24T04:17:57;32.57;;;18.77;;
572;SDS011;271;51.114;13.780;2023-06-24T04:20:45;33.40;;;19.10;;
572;SDS011;271;51.114;13.780;2023-06-24T04:23:34;32.27;;;18.30;;
572;SDS011;271;51.114;13.780;2023-06-24T04:26:21;35.13;;;16.93;;
572;SDS011;271;51.114;13.780;2023-06-24T04:29:09;34.10;;;18.57;;
572;SDS011;271;51.114;13.780;2023-06-24T04:31:57;30.63;;;16.77;;
572;SDS011;271;51.114;13.780;2023-06-24T04:34:44;29.63;;;16.07;;
572;SDS011;271;51.114;13.780;2023-06-24T04:37:32;31.40;;;16.47;;
572;SDS011;271;51.114;13.780;2023-06-24T04:40:21;31.33;;;16.80;;
572;SDS011;271;51.114;13.780;2023-06-24T04:43:09;29.80;;;16.00;;
572;SDS011;271;51.114;13.780;2023-06-24T04:45:57;27.87;;;13.87;;
572;SDS011;271;51.114;13.780;2023-06-24T04:48:44;27.63;;;14.27;;
572;SDS011;271;51.114;13.780;2023-06-24T04:51:32;29.47;;;14.27;;
572;SDS011;271;51.114;13.780;2023-06-24T04:54:20;29.23;;;14.33;;
572;SDS011;271;51.114;13.780;2023-06-24T04:57:09;31.30;;;14.90;;
572;SDS011;271;51.114;13.780;2023-06-24T05:00:10;32.90;;;15.20;;
572;SDS011;271;51.114;13.780;2023-06-24T05:02:59;30.40;;;15.10;;
572;SDS011;271;51.114;13.780;2023-06-24T05:05:46;32.13;;;15.40;;
572;SDS011;271;51.114;13.780;2023-06-24T05:08:34;29.03;;;13.93;;
572;SDS011;271;51.114;13.780;2023-06-24T05:11:22;32.37;;;15.47;;
572;SDS011;271;51.114;13.780;2023-06-24T05:14:11;31.20;;;17.10;;
572;SDS011;271;51.114;13.780;2023-06-24T05:16:59;32.43;;;17.23;;
572;SDS011;271;51.114;13.780;2023-06-24T05:19:46;30.10;;;16.60;;
572;SDS011;271;51.114;13.780;2023-06-24T05:22:34;39.43;;;19.30;;
572;SDS011;271;51.114;13.780;2023-06-24T05:25:22;32.87;;;17.40;;
572;SDS011;271;51.114;13.780;2023-06-24T05:28:10;34.80;;;19.67;;
572;SDS011;271;51.114;13.780;2023-06-24T05:30:59;35.47;;;19.67;;
572;SDS011;271;51.114;13.780;2023-06-24T05:33:46;33.80;;;18.93;;
572;SDS011;271;51.114;13.780;2023-06-24T05:36:34;33.47;;;18.70;;
572;SDS011;271;51.114;13.780;2023-06-24T05:39:22;33.27;;;20.23;;
572;SDS011;271;51.114;13.780;2023-06-24T05:42:10;36.23;;;20.97;;
572;SDS011;271;51.114;13.780;2023-06-24T05:44:58;36.97;;;21.30;;
572;SDS011;271;51.114;13.780;2023-06-24T05:47:47;40.20;;;21.83;;
572;SDS011;271;51.114;13.780;2023-06-24T05:50:35;34.90;;;21.90;;
572;SDS011;271;51.114;13.780;2023-06-24T05:53:22;37.67;;;20.77;;
572;SDS011;271;51.114;13.780;2023-06-24T05:56:12;35.53;;;21.53;;
572;SDS011;271;51.114;13.780;2023-06-24T05:59:00;38.50;;;22.87;;
572;SDS011;271;51.114;13.780;2023-06-24T06:01:48;39.70;;;22.93;;
572;SDS011;271;51.114;13.780;2023-06-24T06:04:40;36.50;;;21.00;;
572;SDS011;271;51.114;13.780;2023-06-24T06:07:28;43.10;;;25.53;;
572;SDS011;271;51.114;13.780;2023-06-24T06:10:16;40.40;;;25.00;;
572;SDS011;271;51.114;13.780;2023-06-24T06:13:03;39.93;;;24.17;;
572;SDS011;271;51.114;13.780;2023-06-24T06:15:51;39.33;;;22.00;;
572;SDS011;271;51.114;13.780;2023-06-24T06:18:39;45.60;;;25.67;;
572;SDS011;271;51.114;13.780;2023-06-24T06:21:28;41.17;;;23.53;;
572;SDS011;271;51.114;13.780;2023-06-24T06:24:18;41.73;;;23.60;;
572;SDS011;271;51.114;13.780;2023-06-24T06:27:08;42.53;;;24.93;;
572;SDS011;271;51.114;13.780;2023-06-24T06:29:57;42.10;;;23.60;;
572;SDS011;271;51.114;13.780;2023-06-24T06:32:45;40.27;;;22.40;;
572;SDS011;271;51.114;13.780;2023-06-24T06:35:33;41.87;;;23.80;;
572;SDS011;271;51.114;13.780;2023-06-24T06:38:22;39.17;;;23.73;;
572;SDS011;271;51.114;13.780;2023-06-24T06:41:09;42.33;;;23.20;;
572;SDS011;271;51.114;13.780;2023-06-24T06:43:57;42.93;;;24.10;;
572;SDS011;271;51.114;13.780;2023-06-24T06:46:45;44.67;;;25.37;;
572;SDS011;271;51.114;13.780;2023-06-24T06:49:32;43.13;;;22.97;;
572;SDS011;271;51.114;13.780;2023-06-24T06:52:20;45.10;;;24.77;;
572;SDS011;271;51.114;13.780;2023-06-24T06:55:09;38.73;;;23.93;;
572;SDS011;271;51.114;13.780;2023-06-24T06:57:57;44.10;;;25.93;;
572;SDS011;271;51.114;13.780;2023-06-24T07:00:45;38.67;;;23.30;;
572;SDS011;271;51.114;13.780;2023-06-24T07:03:33;41.07;;;24.47;;
572;SDS011;271;51.114;13.780;2023-06-24T07:06:21;38.30;;;22.70;;
572;SDS011;271;51.114;13.780;2023-06-24T07:09:08;40.60;;;24.30;;
572;SDS011;271;51.114;13.780;2023-06-24T07:11:57;36.80;;;20.97;;
572;SDS011;271;51.114;13.780;2023-06-24T07:14:45;36.00;;;19.63;;
572;SDS011;271;51.114;13.780;2023-06-24T07:17:33;35.13;;;18.87;;
572;SDS011;271;51.114;13.780;2023-06-24T07:20:21;32.40;;;18.37;;
572;SDS011;271;51.114;13.780;2023-06-24T07:23:09;34.07;;;18.70;;
572;SDS011;271;51.114;13.780;2023-06-24T07:25:57;36.63;;;21.00;;
572;SDS011;271;51.114;13.780;2023-06-24T07:28:46;34.87;;;19.40;;
572;SDS011;271;51.114;13.780;2023-06-24T07:31:34;35.67;;;21.10;;
572;SDS011;271;51.114;13.780;2023-06-24T07:34:22;40.20;;;23.43;;
572;SDS011;271;51.114;13.780;2023-06-24T07:37:09;37.93;;;23.33;;
572;SDS011;271;51.114;13.780;2023-06-24T07:39:57;35.77;;;20.90;;
572;SDS011;271;51.114;13.780;2023-06-24T07:42:45;38.37;;;22.33;;
572;SDS011;271;51.114;13.780;2023-06-24T07:45:34;40.23;;;21.40;;
572;SDS011;271;51.114;13.780;2023-06-24T07:48:22;42.83;;;22.90;;
572;SDS011;271;51.114;13.780;2023-06-24T07:51:10;42.43;;;21.83;;
572;SDS011;271;51.114;13.780;2023-06-24T07:53:57;38.50;;;21.10;;
572;SDS011;271;51.114;13.780;2023-06-24T07:56:45;36.07;;;19.77;;
572;SDS011;271;51.114;13.780;2023-06-24T07:59:34;36.67;;;20.27;;
572;SDS011;271;51.114;13.780;2023-06-24T08:02:23;33.90;;;20.37;;
572;SDS011;271;51.114;13.780;2023-06-24T08:05:13;35.80;;;18.27;;
572;SDS011;271;51.114;13.780;2023-06-24T08:08:01;34.50;;;20.30;;
572;SDS011;271;51.114;13.780;2023-06-24T08:10:48;30.10;;;16.40;;
572;SDS011;271;51.114;13.780;2023-06-24T08:13:36;31.43;;;17.07;;
572;SDS011;271;51.114;13.780;2023-06-24T08:16:24;29.13;;;15.47;;
572;SDS011;271;51.114;13.780;2023-06-24T08:19:13;29.30;;;15.00;;
572;SDS011;271;51.114;13.780;2023-06-24T08:22:02;29.30;;;16.03;;
572;SDS011;271;51.114;13.780;2023-06-24T08:24:51;36.23;;;16.30;;
572;SDS011;271;51.114;13.780;2023-06-24T08:27:38;27.80;;;14.23;;
572;SDS011;271;51.114;13.780;2023-06-24T08:31:02;26.73;;;11.73;;
572;SDS011;271;51.114;13.780;2023-06-24T08:33:51;29.63;;;13.63;;
572;SDS011;271;51.114;13.780;2023-06-24T08:36:41;28.23;;;12.37;;
572;SDS011;271;51.114;13.780;2023-06-24T08:39:29;28.27;;;12.63;;
572;SDS011;271;51.114;13.780;2023-06-24T08:42:16;27.70;;;13.03;;
572;SDS011;271;51.114;13.780;2023-06-24T08:48:48;26.03;;;12.33;;
572;SDS011;271;51.114;13.780;2023-06-24T08:51:39;29.87;;;11.40;;
572;SDS011;271;51.114;13.780;2023-06-24T08:54:34;24.40;;;11.33;;
572;SDS011;271;51.114;13.780;2023-06-24T08:57:24;24.53;;;10.50;;
572;SDS011;271;51.114;13.780;2023-06-24T09:00:13;21.83;;;9.50;;
572;SDS011;271;51.114;13.780;2023-06-24T09:03:02;23.73;;;9.67;;
572;SDS011;271;51.114;13.780;2023-06-24T09:05:50;21.63;;;9.13;;
572;SDS011;271;51.114;13.780;2023-06-24T09:08:39;21.00;;;8.43;;
572;SDS011;271;51.114;13.780;2023-06-24T09:11:27;22.00;;;7.60;;
572;SDS011;271;51.114;13.780;2023-06-24T09:14:17;20.87;;;8.10;;
572;SDS011;271;51.114;13.780;2023-06-24T09:17:06;21.53;;;7.80;;
572;SDS011;271;51.114;13.780;2023-06-24T09:20:02;21.00;;;8.57;;
572;SDS011;271;51.114;13.780;2023-06-24T09:22:52;21.37;;;8.57;;
572;SDS011;271;51.114;13.780;2023-06-24T09:25:56;21.40;;;7.00;;
572;SDS011;271;51.114;13.780;2023-06-24T09:28:47;19.10;;;6.63;;
572;SDS011;271;51.114;13.780;2023-06-24T09:31:35;20.00;;;5.50;;
572;SDS011;271;51.114;13.780;2023-06-24T09:34:32;19.20;;;5.77;;
572;SDS011;271;51.114;13.780;2023-06-24T09:37:21;19.27;;;5.27;;
572;SDS011;271;51.114;13.780;2023-06-24T09:40:10;18.10;;;6.20;;
572;SDS011;271;51.114;13.780;2023-06-24T09:43:01;18.77;;;6.40;;
572;SDS011;271;51.114;13.780;2023-06-24T09:45:49;18.50;;;5.80;;
572;SDS011;271;51.114;13.780;2023-06-24T09:48:38;18.07;;;5.93;;
572;SDS011;271;51.114;13.780;2023-06-24T09:51:26;17.60;;;5.50;;
572;SDS011;271;51.114;13.780;2023-06-24T09:54:14;17.97;;;5.87;;
572;SDS011;271;51.114;13.780;2023-06-24T09:57:03;18.47;;;6.23;;
572;SDS011;271;51.114;13.780;2023-06-24T09:59:53;18.27;;;6.20;;
572;SDS011;271;51.114;13.780;2023-06-24T10:02:42;18.40;;;5.57;;
572;SDS011;271;51.114;13.780;2023-06-24T10:05:30;17.27;;;5.30;;
572;SDS011;271;51.114;13.780;2023-06-24T10:08:18;17.23;;;5.13;;
572;SDS011;271;51.114;13.780;2023-06-24T10:11:06;18.43;;;5.50;;
572;SDS011;271;51.114;13.780;2023-06-24T10:13:54;17.40;;;5.87;;
572;SDS011;271;51.114;13.780;2023-06-24T10:16:43;17.57;;;5.50;;
572;SDS011;271;51.114;13.780;2023-06-24T10:19:37;20.57;;;6.80;;
572;SDS011;271;51.114;13.780;2023-06-24T10:22:29;17.53;;;5.67;;
572;SDS011;271;51.114;13.780;2023-06-24T10:25:38;17.67;;;5.43;;
572;SDS011;271;51.114;13.780;2023-06-24T10:28:26;16.90;;;5.00;;
572;SDS011;271;51.114;13.780;2023-06-24T10:31:14;18.53;;;5.73;;
572;SDS011;271;51.114;13.780;2023-06-24T10:34:04;18.20;;;4.90;;
572;SDS011;271;51.114;13.780;2023-06-24T10:37:47;18.30;;;4.93;;
572;SDS011;271;51.114;13.780;2023-06-24T10:41:04;19.00;;;5.97;;
572;SDS011;271;51.114;13.780;2023-06-24T10:44:23;18.10;;;5.47;;
572;SDS011;271;51.114;13.780;2023-06-24T10:47:19;18.40;;;5.30;;
572;SDS011;271;51.114;13.780;2023-06-24T10:50:24;17.83;;;4.47;;
572;SDS011;271;51.114;13.780;2023-06-24T10:53:15;16.67;;;4.87;;
572;SDS011;271;51.114;13.780;2023-06-24T10:56:06;18.13;;;5.50;;
572;SDS011;271;51.114;13.780;2023-06-24T10:59:11;18.40;;;4.70;;
572;SDS011;271;51.114;13.780;2023-06-24T11:02:07;16.80;;;4.50;;
572;SDS011;271;51.114;13.780;2023-06-24T11:05:08;16.60;;;4.90;;
572;SDS011;271;51.114;13.780;2023-06-24T11:11:11;18.90;;;4.97;;
572;SDS011;271;51.114;13.780;2023-06-24T11:14:13;18.67;;;5.27;;
572;SDS011;271;51.114;13.780;2023-06-24T11:17:06;18.60;;;5.40;;
572;SDS011;271;51.114;13.780;2023-06-24T11:20:02;18.80;;;5.17;;
572;SDS011;271;51.114;13.780;2023-06-24T11:23:01;17.70;;;5.50;;
572;SDS011;271;51.114;13.780;2023-06-24T11:29:13;17.70;;;5.77;;
572;SDS011;271;51.114;13.780;2023-06-24T11:32:02;17.27;;;5.53;;
572;SDS011;271;51.114;13.780;2023-06-24T11:34:54;17.30;;;5.30;;
572;SDS011;271;51.114;13.780;2023-06-24T11:37:43;17.57;;;5.00;;
572;SDS011;271;51.114;13.780;2023-06-24T11:40:35;19.67;;;5.93;;
572;SDS011;271;51.114;13.780;2023-06-24T11:43:26;19.87;;;5.50;;
572;SDS011;271;51.114;13.780;2023-06-24T11:46:20;17.30;;;5.13;;
572;SDS011;271;51.114;13.780;2023-06-24T11:49:08;18.77;;;5.50;;
572;SDS011;271;51.114;13.780;2023-06-24T11:51:57;20.67;;;5.47;;
572;SDS011;271;51.114;13.780;2023-06-24T11:54:46;18.20;;;5.47;;
572;SDS011;271;51.114;13.780;2023-06-24T11:57:56;19.20;;;6.30;;
572;SDS011;271;51.114;13.780;2023-06-24T12:01:06;17.63;;;5.60;;
572;SDS011;271;51.114;13.780;2023-06-24T12:07:58;17.37;;;5.63;;
572;SDS011;271;51.114;13.780;2023-06-24T12:10:47;16.53;;;4.80;;
572;SDS011;271;51.114;13.780;2023-06-24T12:13:36;18.70;;;5.93;;
572;SDS011;271;51.114;13.780;2023-06-24T12:16:29;17.23;;;5.17;;
572;SDS011;271;51.114;13.780;2023-06-24T12:19:18;17.53;;;5.30;;
572;SDS011;271;51.114;13.780;2023-06-24T12:22:07;18.80;;;6.60;;
572;SDS011;271;51.114;13.780;2023-06-24T12:24:55;18.43;;;5.43;;
572;SDS011;271;51.114;13.780;2023-06-24T12:27:43;17.63;;;6.20;;
572;SDS011;271;51.114;13.780;2023-06-24T12:30:33;19.27;;;6.13;;
572;SDS011;271;51.114;13.780;2023-06-24T12:33:23;18.37;;;5.80;;
572;SDS011;271;51.114;13.780;2023-06-24T12:36:11;20.10;;;7.17;;
572;SDS011;271;51.114;13.780;2023-06-24T12:38:59;18.50;;;6.10;;
572;SDS011;271;51.114;13.780;2023-06-24T12:41:47;18.00;;;5.23;;
572;SDS011;271;51.114;13.780;2023-06-24T12:44:35;18.77;;;5.60;;
572;SDS011;271;51.114;13.780;2023-06-24T12:47:22;18.70;;;5.40;;
572;SDS011;271;51.114;13.780;2023-06-24T12:50:11;20.93;;;5.40;;
572;SDS011;271;51.114;13.780;2023-06-24T12:52:59;17.90;;;5.30;;
572;SDS011;271;51.114;13.780;2023-06-24T12:55:47;18.00;;;5.50;;
572;SDS011;271;51.114;13.780;2023-06-24T12:58:36;17.13;;;5.20;;
572;SDS011;271;51.114;13.780;2023-06-24T13:01:24;17.70;;;5.53;;
572;SDS011;271;51.114;13.780;2023-06-24T13:04:11;18.40;;;5.33;;
572;SDS011;271;51.114;13.780;2023-06-24T13:07:00;18.40;;;5.30;;
572;SDS011;271;51.114;13.780;2023-06-24T13:09:49;17.43;;;5.40;;
572;SDS011;271;51.114;13.780;2023-06-24T13:12:37;17.10;;;4.50;;
572;SDS011;271;51.114;13.780;2023-06-24T13:15:25;17.90;;;5.73;;
572;SDS011;271;51.114;13.780;2023-06-24T13:18:14;18.97;;;5.37;;
572;SDS011;271;51.114;13.780;2023-06-24T13:21:03;19.20;;;5.67;;
572;SDS011;271;51.114;13.780;2023-06-24T13:23:54;16.87;;;3.97;;
572;SDS011;271;51.114;13.780;2023-06-24T13:26:41;17.10;;;4.30;;
572;SDS011;271;51.114;13.780;2023-06-24T13:29:30;20.10;;;4.87;;
572;SDS011;271;51.114;13.780;2023-06-24T13:32:20;17.00;;;4.53;;
572;SDS011;271;51.114;13.780;2023-06-24T13:35:09;17.77;;;4.50;;
572;SDS011;271;51.114;13.780;2023-06-24T13:37:57;16.23;;;4.10;;
572;SDS011;271;51.114;13.780;2023-06-24T13:40:46;18.37;;;5.77;;
572;SDS011;271;51.114;13.780;2023-06-24T13:43:34;18.20;;;4.90;;
572;SDS011;271;51.114;13.780;2023-06-24T13:46:22;19.27;;;5.43;;
572;SDS011;271;51.114;13.780;2023-06-24T13:49:10;17.30;;;4.50;;
572;SDS011;271;51.114;13.780;2023-06-24T13:51:58;17.07;;;4.40;;
572;SDS011;271;51.114;13.780;2023-06-24T13:54:46;17.60;;;5.20;;
572;SDS011;271;51.114;13.780;2023-06-24T13:57:35;19.40;;;4.17;;
572;SDS011;271;51.114;13.780;2023-06-24T14:00:23;17.70;;;4.87;;
572;SDS011;271;51.114;13.780;2023-06-24T14:03:11;17.00;;;4.50;;
572;SDS011;271;51.114;13.780;2023-06-24T14:05:59;17.90;;;4.70;;
572;SDS011;271;51.114;13.780;2023-06-24T14:08:47;16.40;;;4.50;;
572;SDS011;271;51.114;13.780;2023-06-24T14:11:35;16.40;;;4.40;;
572;SDS011;271;51.114;13.780;2023-06-24T14:14:24;16.80;;;4.30;;
572;SDS011;271;51.114;13.780;2023-06-24T14:17:12;17.37;;;4.63;;
572;SDS011;271;51.114;13.780;2023-06-24T14:20:00;16.07;;;4.00;;
572;SDS011;271;51.114;13.780;2023-06-24T14:22:49;16.50;;;4.17;;
572;SDS011;271;51.114;13.780;2023-06-24T14:25:36;16.30;;;4.37;;
572;SDS011;271;51.114;13.780;2023-06-24T14:28:24;16.20;;;4.50;;
572;SDS011;271;51.114;13.780;2023-06-24T14:31:13;17.17;;;4.13;;
572;SDS011;271;51.114;13.780;2023-06-24T14:34:01;20.40;;;5.10;;
572;SDS011;271;51.114;13.780;2023-06-24T14:36:49;16.63;;;4.07;;
572;SDS011;271;51.114;13.780;2023-06-24T14:39:37;16.37;;;4.07;;
572;SDS011;271;51.114;13.780;2023-06-24T14:42:26;16.33;;;4.20;;
572;SDS011;271;51.114;13.780;2023-06-24T14:45:14;16.80;;;4.33;;
572;SDS011;271;51.114;13.780;2023-06-24T14:48:03;18.57;;;4.70;;
572;SDS011;271;51.114;13.780;2023-06-24T14:50:51;17.00;;;4.37;;
572;SDS011;271;51.114;13.780;2023-06-24T14:53:39;16.23;;;4.13;;
572;SDS011;271;51.114;13.780;2023-06-24T14:56:27;16.83;;;4.30;;
572;SDS011;271;51.114;13.780;2023-06-24T14:59:15;17.40;;;4.80;;
572;SDS011;271;51.114;13.780;2023-06-24T15:02:03;15.67;;;4.00;;
572;SDS011;271;51.114;13.780;2023-06-24T15:04:52;16.80;;;4.30;;
572;SDS011;271;51.114;13.780;2023-06-24T15:07:40;16.57;;;4.30;;
572;SDS011;271;51.114;13.780;2023-06-24T15:10:28;17.70;;;4.70;;
572;SDS011;271;51.114;13.780;2023-06-24T15:13:16;16.37;;;3.90;;
572;SDS011;271;51.114;13.780;2023-06-24T15:16:04;16.97;;;4.37;;
572;SDS011;271;51.114;13.780;2023-06-24T15:18:52;18.53;;;4.20;;
572;SDS011;271;51.114;13.780;2023-06-24T15:21:41;20.03;;;4.60;;
572;SDS011;271;51.114;13.780;2023-06-24T15:24:29;15.80;;;3.90;;
572;SDS011;271;51.114;13.780;2023-06-24T15:27:17;17.87;;;4.00;;
572;SDS011;271;51.114;13.780;2023-06-24T15:30:05;16.73;;;3.93;;
572;SDS011;271;51.114;13.780;2023-06-24T15:32:54;17.30;;;4.30;;
572;SDS011;271;51.114;13.780;2023-06-24T15:35:42;15.97;;;3.70;;
572;SDS011;271;51.114;13.780;2023-06-24T15:38:31;17.00;;;4.20;;
572;SDS011;271;51.114;13.780;2023-06-24T15:41:19;17.90;;;4.70;;
572;SDS011;271;51.114;13.780;2023-06-24T15:44:06;17.60;;;5.10;;
572;SDS011;271;51.114;13.780;2023-06-24T15:46:54;17.57;;;4.73;;
572;SDS011;271;51.114;13.780;2023-06-24T15:49:42;23.23;;;11.43;;
572;SDS011;271;51.114;13.780;2023-06-24T15:52:30;24.73;;;10.97;;
572;SDS011;271;51.114;13.780;2023-06-24T15:55:20;17.33;;;5.53;;
572;SDS011;271;51.114;13.780;2023-06-24T15:58:07;19.40;;;6.50;;
572;SDS011;271;51.114;13.780;2023-06-24T16:00:55;17.73;;;6.20;;
572;SDS011;271;51.114;13.780;2023-06-24T16:03:43;18.10;;;5.23;;
572;SDS011;271;51.114;13.780;2023-06-24T16:06:31;18.00;;;5.40;;
572;SDS011;271;51.114;13.780;2023-06-24T16:09:21;16.07;;;3.80;;
572;SDS011;271;51.114;13.780;2023-06-24T16:12:10;17.73;;;4.33;;
572;SDS011;271;51.114;13.780;2023-06-24T16:14:58;17.63;;;4.60;;
572;SDS011;271;51.114;13.780;2023-06-24T16:17:46;16.60;;;4.60;;
572;SDS011;271;51.114;13.780;2023-06-24T16:20:34;16.90;;;4.17;;
572;SDS011;271;51.114;13.780;2023-06-24T16:23:22;20.00;;;4.57;;
572;SDS011;271;51.114;13.780;2023-06-24T16:26:10;16.90;;;4.83;;
572;SDS011;271;51.114;13.780;2023-06-24T16:28:59;17.20;;;4.43;;
572;SDS011;271;51.114;13.780;2023-06-24T16:31:47;16.40;;;4.03;;
572;SDS011;271;51.114;13.780;2023-06-24T16:34:35;17.00;;;4.60;;
572;SDS011;271;51.114;13.780;2023-06-24T16:37:22;17.57;;;4.43;;
572;SDS011;271;51.114;13.780;2023-06-24T16:40:10;17.30;;;4.70;;
572;SDS011;271;51.114;13.780;2023-06-24T16:42:59;18.13;;;5.67;;
572;SDS011;271;51.114;13.780;2023-06-24T16:45:48;17.17;;;4.50;;
572;SDS011;271;51.114;13.780;2023-06-24T16:48:36;17.13;;;4.70;;
572;SDS011;271;51.114;13.780;2023-06-24T16:51:24;18.10;;;4.80;;
572;SDS011;271;51.114;13.780;2023-06-24T16:54:12;16.97;;;4.17;;
572;SDS011;271;51.114;13.780;2023-06-24T16:57:00;16.37;;;4.60;;
572;SDS011;271;51.114;13.780;2023-06-24T16:59:48;16.60;;;4.00;;
572;SDS011;271;51.114;13.780;2023-06-24T17:02:37;16.23;;;4.30;;
572;SDS011;271;51.114;13.780;2023-06-24T17:05:27;17.40;;;4.67;;
572;SDS011;271;51.114;13.780;2023-06-24T17:08:15;16.77;;;4.87;;
572;SDS011;271;51.114;13.780;2023-06-24T17:11:03;16.67;;;4.60;;
572;SDS011;271;51.114;13.780;2023-06-24T17:13:51;20.10;;;5.23;;
572;SDS011;271;51.114;13.780;2023-06-24T17:16:38;16.87;;;4.40;;
572;SDS011;271;51.114;13.780;2023-06-24T17:19:28;16.60;;;4.53;;
572;SDS011;271;51.114;13.780;2023-06-24T17:22:15;16.97;;;4.67;;
572;SDS011;271;51.114;13.780;2023-06-24T17:25:04;19.43;;;4.17;;
572;SDS011;271;51.114;13.780;2023-06-24T17:27:52;17.50;;;4.93;;
572;SDS011;271;51.114;13.780;2023-06-24T17:30:40;17.87;;;5.00;;
572;SDS011;271;51.114;13.780;2023-06-24T17:33:28;17.00;;;4.67;;
572;SDS011;271;51.114;13.780;2023-06-24T17:36:17;18.03;;;4.27;;
572;SDS011;271;51.114;13.780;2023-06-24T17:39:05;16.50;;;4.00;;
572;SDS011;271;51.114;13.780;2023-06-24T17:41:53;16.60;;;4.13;;
572;SDS011;271;51.114;13.780;2023-06-24T17:44:41;17.70;;;4.93;;
572;SDS011;271;51.114;13.780;2023-06-24T17:47:29;17.03;;;4.53;;
572;SDS011;271;51.114;13.780;2023-06-24T17:50:16;16.27;;;4.17;;
572;SDS011;271;51.114;13.780;2023-06-24T17:53:06;17.47;;;4.70;;